sensor_id;sensor_type;location;lat;lon;timestamp;P1;durP1;ratioP1;P2;durP2;ratioP2
45059;SDS011;30799;49.060;9.312;2023-05-19T00:01:13;3.85;;;1.42;;
45059;SDS011;30799;49.060;9.312;2023-05-19T00:03:52;2.30;;;1.30;;
45059;SDS011;30799;49.060;9.312;2023-05-19T00:06:23;3.35;;;1.40;;
45059;SDS011;30799;49.060;9.312;2023-05-19T00:08:55;2.22;;;1.50;;
45059;SDS011;30799;49.060;9.312;2023-05-19T00:11:29;1.52;;;1.33;;
45059;SDS011;30799;49.060;9.312;2023-05-19T00:13:57;3.70;;;1.73;;
45059;SDS011;30799;49.060;9.312;2023-05-19T00:16:25;1.50;;;1.40;;
45059;SDS011;30799;49.060;9.312;2023-05-19T00:18:53;2.08;;;1.55;;
45059;SDS011;30799;49.060;9.312;2023-05-19T00:21:22;1.58;;;1.48;;
45059;SDS011;30799;49.060;9.312;2023-05-19T00:23:48;1.33;;;1.20;;
45059;SDS011;30799;49.060;9.312;2023-05-19T00:26:15;2.08;;;1.33;;
45059;SDS011;30799;49.060;9.312;2023-05-19T00:28:42;2.13;;;1.60;;
45059;SDS011;30799;49.060;9.312;2023-05-19T00:31:09;2.17;;;1.10;;
45059;SDS011;30799;49.060;9.312;2023-05-19T00:33:35;2.83;;;1.50;;
45059;SDS011;30799;49.060;9.312;2023-05-19T00:36:02;1.90;;;1.58;;
45059;SDS011;30799;49.060;9.312;2023-05-19T00:38:29;1.50;;;1.38;;
45059;SDS011;30799;49.060;9.312;2023-05-19T00:40:57;1.80;;;1.30;;
45059;SDS011;30799;49.060;9.312;2023-05-19T00:43:25;1.77;;;1.20;;
45059;SDS011;30799;49.060;9.312;2023-05-19T00:45:52;2.00;;;1.42;;
45059;SDS011;30799;49.060;9.312;2023-05-19T00:48:19;1.42;;;1.10;;
45059;SDS011;30799;49.060;9.312;2023-05-19T00:50:47;2.22;;;1.40;;
45059;SDS011;30799;49.060;9.312;2023-05-19T00:53:16;2.15;;;1.38;;
45059;SDS011;30799;49.060;9.312;2023-05-19T00:55:43;2.20;;;1.15;;
45059;SDS011;30799;49.060;9.312;2023-05-19T00:58:11;1.52;;;1.30;;
45059;SDS011;30799;49.060;9.312;2023-05-19T01:00:39;1.83;;;1.50;;
45059;SDS011;30799;49.060;9.312;2023-05-19T01:03:07;2.05;;;1.60;;
45059;SDS011;30799;49.060;9.312;2023-05-19T01:05:41;1.35;;;1.25;;
45059;SDS011;30799;49.060;9.312;2023-05-19T01:08:12;1.48;;;1.30;;
45059;SDS011;30799;49.060;9.312;2023-05-19T01:10:39;1.38;;;1.10;;
45059;SDS011;30799;49.060;9.312;2023-05-19T01:13:06;1.88;;;1.38;;
45059;SDS011;30799;49.060;9.312;2023-05-19T01:15:36;1.23;;;1.13;;
45059;SDS011;30799;49.060;9.312;2023-05-19T01:18:14;1.40;;;1.30;;
45059;SDS011;30799;49.060;9.312;2023-05-19T01:20:45;1.50;;;1.25;;
45059;SDS011;30799;49.060;9.312;2023-05-19T01:31:35;1.73;;;1.23;;
45059;SDS011;30799;49.060;9.312;2023-05-19T01:34:05;2.15;;;1.50;;
45059;SDS011;30799;49.060;9.312;2023-05-19T01:36:32;2.10;;;1.27;;
45059;SDS011;30799;49.060;9.312;2023-05-19T01:39:01;1.37;;;1.27;;
45059;SDS011;30799;49.060;9.312;2023-05-19T01:41:27;2.25;;;1.30;;
45059;SDS011;30799;49.060;9.312;2023-05-19T01:43:57;1.55;;;1.30;;
45059;SDS011;30799;49.060;9.312;2023-05-19T01:46:25;1.83;;;1.30;;
45059;SDS011;30799;49.060;9.312;2023-05-19T01:48:51;1.67;;;1.30;;
45059;SDS011;30799;49.060;9.312;2023-05-19T01:51:18;1.35;;;1.25;;
45059;SDS011;30799;49.060;9.312;2023-05-19T01:53:45;1.30;;;1.17;;
45059;SDS011;30799;49.060;9.312;2023-05-19T01:56:13;1.42;;;1.30;;
45059;SDS011;30799;49.060;9.312;2023-05-19T01:58:46;1.65;;;1.35;;
45059;SDS011;30799;49.060;9.312;2023-05-19T02:16:04;1.17;;;1.08;;
45059;SDS011;30799;49.060;9.312;2023-05-19T02:18:32;1.40;;;1.30;;
45059;SDS011;30799;49.060;9.312;2023-05-19T02:21:00;1.33;;;1.20;;
45059;SDS011;30799;49.060;9.312;2023-05-19T02:23:27;1.52;;;1.35;;
45059;SDS011;30799;49.060;9.312;2023-05-19T02:25:54;1.27;;;1.00;;
45059;SDS011;30799;49.060;9.312;2023-05-19T02:28:21;1.67;;;1.15;;
45059;SDS011;30799;49.060;9.312;2023-05-19T02:30:48;2.70;;;1.35;;
45059;SDS011;30799;49.060;9.312;2023-05-19T02:33:14;2.00;;;1.38;;
45059;SDS011;30799;49.060;9.312;2023-05-19T02:35:41;0.98;;;0.88;;
45059;SDS011;30799;49.060;9.312;2023-05-19T02:38:08;1.23;;;1.10;;
45059;SDS011;30799;49.060;9.312;2023-05-19T02:40:34;1.58;;;1.10;;
45059;SDS011;30799;49.060;9.312;2023-05-19T02:43:01;1.50;;;1.10;;
45059;SDS011;30799;49.060;9.312;2023-05-19T02:45:28;1.33;;;1.20;;
45059;SDS011;30799;49.060;9.312;2023-05-19T02:47:55;1.17;;;0.98;;
45059;SDS011;30799;49.060;9.312;2023-05-19T02:50:22;1.70;;;1.33;;
45059;SDS011;30799;49.060;9.312;2023-05-19T02:52:48;1.30;;;1.20;;
45059;SDS011;30799;49.060;9.312;2023-05-19T02:55:15;1.52;;;1.10;;
45059;SDS011;30799;49.060;9.312;2023-05-19T02:57:42;0.90;;;0.90;;
45059;SDS011;30799;49.060;9.312;2023-05-19T03:00:09;1.13;;;1.02;;
45059;SDS011;30799;49.060;9.312;2023-05-19T03:02:36;1.95;;;1.10;;
45059;SDS011;30799;49.060;9.312;2023-05-19T03:05:03;2.85;;;1.48;;
45059;SDS011;30799;49.060;9.312;2023-05-19T03:07:30;1.05;;;1.00;;
45059;SDS011;30799;49.060;9.312;2023-05-19T03:09:58;1.20;;;1.10;;
45059;SDS011;30799;49.060;9.312;2023-05-19T03:12:28;2.45;;;1.02;;
45059;SDS011;30799;49.060;9.312;2023-05-19T03:14:55;2.60;;;1.13;;
45059;SDS011;30799;49.060;9.312;2023-05-19T03:17:22;1.23;;;1.00;;
45059;SDS011;30799;49.060;9.312;2023-05-19T03:19:48;2.78;;;1.00;;
45059;SDS011;30799;49.060;9.312;2023-05-19T03:22:16;1.27;;;1.00;;
45059;SDS011;30799;49.060;9.312;2023-05-19T03:24:46;1.35;;;1.25;;
45059;SDS011;30799;49.060;9.312;2023-05-19T03:27:16;1.42;;;1.10;;
45059;SDS011;30799;49.060;9.312;2023-05-19T03:29:42;1.55;;;1.00;;
45059;SDS011;30799;49.060;9.312;2023-05-19T03:32:09;1.15;;;1.05;;
45059;SDS011;30799;49.060;9.312;2023-05-19T03:34:36;1.83;;;1.20;;
45059;SDS011;30799;49.060;9.312;2023-05-19T03:37:02;1.25;;;0.95;;
45059;SDS011;30799;49.060;9.312;2023-05-19T03:39:29;1.98;;;1.17;;
45059;SDS011;30799;49.060;9.312;2023-05-19T03:41:56;1.02;;;1.00;;
45059;SDS011;30799;49.060;9.312;2023-05-19T03:44:22;1.77;;;1.10;;
45059;SDS011;30799;49.060;9.312;2023-05-19T03:46:49;11.57;;;1.50;;
45059;SDS011;30799;49.060;9.312;2023-05-19T03:49:16;1.45;;;0.80;;
45059;SDS011;30799;49.060;9.312;2023-05-19T03:51:42;0.90;;;0.90;;
45059;SDS011;30799;49.060;9.312;2023-05-19T03:54:09;1.17;;;1.08;;
45059;SDS011;30799;49.060;9.312;2023-05-19T03:56:37;1.55;;;1.10;;
45059;SDS011;30799;49.060;9.312;2023-05-19T03:59:05;1.00;;;0.90;;
45059;SDS011;30799;49.060;9.312;2023-05-19T04:01:32;1.13;;;1.02;;
45059;SDS011;30799;49.060;9.312;2023-05-19T04:03:59;1.35;;;1.20;;
45059;SDS011;30799;49.060;9.312;2023-05-19T04:06:26;1.08;;;0.98;;
45059;SDS011;30799;49.060;9.312;2023-05-19T04:08:53;1.20;;;0.90;;
45059;SDS011;30799;49.060;9.312;2023-05-19T04:11:19;0.82;;;0.82;;
45059;SDS011;30799;49.060;9.312;2023-05-19T04:13:46;0.90;;;0.90;;
45059;SDS011;30799;49.060;9.312;2023-05-19T04:16:13;1.50;;;1.17;;
45059;SDS011;30799;49.060;9.312;2023-05-19T04:18:40;0.93;;;0.88;;
45059;SDS011;30799;49.060;9.312;2023-05-19T04:21:07;1.15;;;0.90;;
45059;SDS011;30799;49.060;9.312;2023-05-19T04:23:33;1.50;;;1.20;;
45059;SDS011;30799;49.060;9.312;2023-05-19T04:26:00;1.60;;;0.93;;
45059;SDS011;30799;49.060;9.312;2023-05-19T04:28:28;1.20;;;1.00;;
45059;SDS011;30799;49.060;9.312;2023-05-19T04:30:55;1.50;;;0.82;;
45059;SDS011;30799;49.060;9.312;2023-05-19T04:33:23;0.85;;;0.82;;
45059;SDS011;30799;49.060;9.312;2023-05-19T04:35:50;1.10;;;0.88;;
45059;SDS011;30799;49.060;9.312;2023-05-19T04:38:17;1.35;;;0.90;;
45059;SDS011;30799;49.060;9.312;2023-05-19T04:40:45;1.73;;;1.10;;
45059;SDS011;30799;49.060;9.312;2023-05-19T04:43:15;1.20;;;1.10;;
45059;SDS011;30799;49.060;9.312;2023-05-19T04:45:43;1.63;;;1.10;;
45059;SDS011;30799;49.060;9.312;2023-05-19T04:48:09;1.33;;;1.17;;
45059;SDS011;30799;49.060;9.312;2023-05-19T04:50:37;1.98;;;1.50;;
45059;SDS011;30799;49.060;9.312;2023-05-19T04:53:07;2.38;;;1.13;;
45059;SDS011;30799;49.060;9.312;2023-05-19T04:55:34;3.17;;;1.30;;
45059;SDS011;30799;49.060;9.312;2023-05-19T04:58:03;2.45;;;1.30;;
45059;SDS011;30799;49.060;9.312;2023-05-19T05:00:30;2.30;;;1.25;;
45059;SDS011;30799;49.060;9.312;2023-05-19T05:02:57;2.72;;;1.52;;
45059;SDS011;30799;49.060;9.312;2023-05-19T05:05:24;2.00;;;1.20;;
45059;SDS011;30799;49.060;9.312;2023-05-19T05:07:50;2.88;;;1.60;;
45059;SDS011;30799;49.060;9.312;2023-05-19T05:10:19;2.35;;;1.50;;
45059;SDS011;30799;49.060;9.312;2023-05-19T05:12:46;2.75;;;1.55;;
45059;SDS011;30799;49.060;9.312;2023-05-19T05:15:14;3.92;;;1.80;;
45059;SDS011;30799;49.060;9.312;2023-05-19T05:17:41;3.03;;;1.60;;
45059;SDS011;30799;49.060;9.312;2023-05-19T05:20:08;3.53;;;1.52;;
45059;SDS011;30799;49.060;9.312;2023-05-19T05:22:36;4.30;;;1.80;;
45059;SDS011;30799;49.060;9.312;2023-05-19T05:25:04;3.55;;;1.65;;
45059;SDS011;30799;49.060;9.312;2023-05-19T05:27:31;3.90;;;2.10;;
45059;SDS011;30799;49.060;9.312;2023-05-19T05:29:58;2.55;;;1.50;;
45059;SDS011;30799;49.060;9.312;2023-05-19T05:32:25;2.65;;;1.52;;
45059;SDS011;30799;49.060;9.312;2023-05-19T05:34:51;2.92;;;2.00;;
45059;SDS011;30799;49.060;9.312;2023-05-19T05:37:18;2.83;;;1.67;;
45059;SDS011;30799;49.060;9.312;2023-05-19T05:39:45;4.35;;;1.83;;
45059;SDS011;30799;49.060;9.312;2023-05-19T05:42:11;6.28;;;1.92;;
45059;SDS011;30799;49.060;9.312;2023-05-19T05:44:38;2.67;;;1.60;;
45059;SDS011;30799;49.060;9.312;2023-05-19T05:49:32;8.30;;;2.47;;
45059;SDS011;30799;49.060;9.312;2023-05-19T05:52:01;8.95;;;2.60;;
45059;SDS011;30799;49.060;9.312;2023-05-19T05:54:31;6.32;;;2.50;;
45059;SDS011;30799;49.060;9.312;2023-05-19T05:56:58;7.82;;;2.90;;
45059;SDS011;30799;49.060;9.312;2023-05-19T05:59:25;7.00;;;2.60;;
45059;SDS011;30799;49.060;9.312;2023-05-19T06:01:52;6.38;;;2.95;;
45059;SDS011;30799;49.060;9.312;2023-05-19T06:04:19;7.15;;;2.70;;
45059;SDS011;30799;49.060;9.312;2023-05-19T06:06:46;9.43;;;4.97;;
45059;SDS011;30799;49.060;9.312;2023-05-19T06:09:13;9.02;;;3.97;;
45059;SDS011;30799;49.060;9.312;2023-05-19T06:11:39;9.55;;;3.92;;
45059;SDS011;30799;49.060;9.312;2023-05-19T06:14:06;7.78;;;3.42;;
45059;SDS011;30799;49.060;9.312;2023-05-19T06:16:33;8.05;;;4.15;;
45059;SDS011;30799;49.060;9.312;2023-05-19T06:18:59;7.15;;;4.82;;
45059;SDS011;30799;49.060;9.312;2023-05-19T06:21:26;11.50;;;8.32;;
45059;SDS011;30799;49.060;9.312;2023-05-19T06:23:53;12.23;;;10.40;;
45059;SDS011;30799;49.060;9.312;2023-05-19T06:26:19;16.05;;;13.15;;
45059;SDS011;30799;49.060;9.312;2023-05-19T06:28:46;17.65;;;11.85;;
45059;SDS011;30799;49.060;9.312;2023-05-19T06:31:13;15.48;;;11.20;;
45059;SDS011;30799;49.060;9.312;2023-05-19T06:33:39;13.70;;;11.77;;
45059;SDS011;30799;49.060;9.312;2023-05-19T06:36:06;14.68;;;11.60;;
45059;SDS011;30799;49.060;9.312;2023-05-19T06:38:35;14.45;;;10.80;;
45059;SDS011;30799;49.060;9.312;2023-05-19T06:41:01;14.73;;;10.13;;
45059;SDS011;30799;49.060;9.312;2023-05-19T06:43:28;12.10;;;9.05;;
45059;SDS011;30799;49.060;9.312;2023-05-19T06:45:55;10.20;;;9.07;;
45059;SDS011;30799;49.060;9.312;2023-05-19T06:48:22;11.75;;;9.25;;
45059;SDS011;30799;49.060;9.312;2023-05-19T06:50:48;10.88;;;8.32;;
45059;SDS011;30799;49.060;9.312;2023-05-19T06:53:17;9.55;;;7.80;;
45059;SDS011;30799;49.060;9.312;2023-05-19T06:55:45;10.07;;;8.43;;
45059;SDS011;30799;49.060;9.312;2023-05-19T06:58:24;13.02;;;7.90;;
45059;SDS011;30799;49.060;9.312;2023-05-19T07:00:51;9.25;;;7.63;;
45059;SDS011;30799;49.060;9.312;2023-05-19T07:03:18;11.40;;;8.63;;
45059;SDS011;30799;49.060;9.312;2023-05-19T07:05:45;10.63;;;7.85;;
45059;SDS011;30799;49.060;9.312;2023-05-19T07:08:12;8.50;;;7.57;;
45059;SDS011;30799;49.060;9.312;2023-05-19T07:10:39;11.63;;;7.22;;
45059;SDS011;30799;49.060;9.312;2023-05-19T07:13:05;8.63;;;7.28;;
45059;SDS011;30799;49.060;9.312;2023-05-19T07:15:32;9.40;;;7.03;;
45059;SDS011;30799;49.060;9.312;2023-05-19T07:17:59;9.52;;;6.72;;
45059;SDS011;30799;49.060;9.312;2023-05-19T07:20:25;8.48;;;6.45;;
45059;SDS011;30799;49.060;9.312;2023-05-19T07:22:52;7.70;;;6.70;;
45059;SDS011;30799;49.060;9.312;2023-05-19T07:25:19;6.50;;;5.88;;
45059;SDS011;30799;49.060;9.312;2023-05-19T07:27:46;8.38;;;6.45;;
45059;SDS011;30799;49.060;9.312;2023-05-19T07:30:12;7.30;;;6.60;;
45059;SDS011;30799;49.060;9.312;2023-05-19T07:32:40;7.82;;;6.00;;
45059;SDS011;30799;49.060;9.312;2023-05-19T07:35:06;7.40;;;6.10;;
45059;SDS011;30799;49.060;9.312;2023-05-19T07:37:33;8.57;;;5.70;;
45059;SDS011;30799;49.060;9.312;2023-05-19T07:40:01;8.93;;;5.65;;
45059;SDS011;30799;49.060;9.312;2023-05-19T07:42:27;6.15;;;5.55;;
45059;SDS011;30799;49.060;9.312;2023-05-19T07:44:54;6.65;;;5.22;;
45059;SDS011;30799;49.060;9.312;2023-05-19T07:47:21;6.68;;;5.22;;
45059;SDS011;30799;49.060;9.312;2023-05-19T07:49:47;11.05;;;5.70;;
45059;SDS011;30799;49.060;9.312;2023-05-19T07:52:17;6.40;;;4.82;;
45059;SDS011;30799;49.060;9.312;2023-05-19T07:54:44;5.72;;;4.82;;
45059;SDS011;30799;49.060;9.312;2023-05-19T07:57:11;6.45;;;5.00;;
45059;SDS011;30799;49.060;9.312;2023-05-19T07:59:39;7.05;;;4.90;;
45059;SDS011;30799;49.060;9.312;2023-05-19T08:02:06;6.65;;;4.95;;
45059;SDS011;30799;49.060;9.312;2023-05-19T08:04:33;5.15;;;4.25;;
45059;SDS011;30799;49.060;9.312;2023-05-19T08:07:00;6.65;;;4.72;;
45059;SDS011;30799;49.060;9.312;2023-05-19T08:09:27;5.95;;;4.97;;
45059;SDS011;30799;49.060;9.312;2023-05-19T08:11:53;6.10;;;4.80;;
45059;SDS011;30799;49.060;9.312;2023-05-19T08:14:20;6.82;;;3.60;;
45059;SDS011;30799;49.060;9.312;2023-05-19T08:16:48;7.40;;;4.45;;
45059;SDS011;30799;49.060;9.312;2023-05-19T08:19:14;5.97;;;4.35;;
45059;SDS011;30799;49.060;9.312;2023-05-19T08:21:41;6.22;;;4.57;;
45059;SDS011;30799;49.060;9.312;2023-05-19T08:24:09;8.32;;;4.22;;
45059;SDS011;30799;49.060;9.312;2023-05-19T08:26:36;9.73;;;3.67;;
45059;SDS011;30799;49.060;9.312;2023-05-19T08:29:03;5.78;;;3.42;;
45059;SDS011;30799;49.060;9.312;2023-05-19T08:31:30;4.65;;;3.53;;
45059;SDS011;30799;49.060;9.312;2023-05-19T08:33:57;6.35;;;3.42;;
45059;SDS011;30799;49.060;9.312;2023-05-19T08:36:24;8.38;;;3.85;;
45059;SDS011;30799;49.060;9.312;2023-05-19T08:38:51;6.10;;;3.63;;
45059;SDS011;30799;49.060;9.312;2023-05-19T08:41:17;6.60;;;4.32;;
45059;SDS011;30799;49.060;9.312;2023-05-19T08:43:44;6.03;;;3.80;;
45059;SDS011;30799;49.060;9.312;2023-05-19T08:46:12;5.22;;;3.72;;
45059;SDS011;30799;49.060;9.312;2023-05-19T08:48:41;4.47;;;3.28;;
45059;SDS011;30799;49.060;9.312;2023-05-19T08:53:43;4.15;;;3.30;;
45059;SDS011;30799;49.060;9.312;2023-05-19T08:56:17;6.25;;;3.53;;
45059;SDS011;30799;49.060;9.312;2023-05-19T08:58:50;4.03;;;3.50;;
45059;SDS011;30799;49.060;9.312;2023-05-19T09:01:18;3.78;;;3.20;;
45059;SDS011;30799;49.060;9.312;2023-05-19T09:03:45;5.30;;;3.15;;
45059;SDS011;30799;49.060;9.312;2023-05-19T09:06:15;4.65;;;2.95;;
45059;SDS011;30799;49.060;9.312;2023-05-19T09:08:42;7.10;;;3.28;;
45059;SDS011;30799;49.060;9.312;2023-05-19T09:11:10;5.72;;;2.95;;
45059;SDS011;30799;49.060;9.312;2023-05-19T09:13:37;10.40;;;3.30;;
45059;SDS011;30799;49.060;9.312;2023-05-19T09:16:04;6.60;;;3.03;;
45059;SDS011;30799;49.060;9.312;2023-05-19T09:18:31;5.78;;;2.78;;
45059;SDS011;30799;49.060;9.312;2023-05-19T09:20:58;5.57;;;3.00;;
45059;SDS011;30799;49.060;9.312;2023-05-19T09:23:28;5.28;;;3.10;;
45059;SDS011;30799;49.060;9.312;2023-05-19T09:25:56;5.22;;;3.13;;
45059;SDS011;30799;49.060;9.312;2023-05-19T09:28:26;6.97;;;2.70;;
45059;SDS011;30799;49.060;9.312;2023-05-19T09:31:02;5.13;;;2.90;;
45059;SDS011;30799;49.060;9.312;2023-05-19T09:33:37;4.10;;;2.60;;
45059;SDS011;30799;49.060;9.312;2023-05-19T09:36:06;4.68;;;2.47;;
45059;SDS011;30799;49.060;9.312;2023-05-19T09:38:34;4.22;;;2.60;;
45059;SDS011;30799;49.060;9.312;2023-05-19T09:41:01;4.97;;;2.90;;
45059;SDS011;30799;49.060;9.312;2023-05-19T09:43:30;4.43;;;2.70;;
45059;SDS011;30799;49.060;9.312;2023-05-19T09:45:59;5.10;;;2.70;;
45059;SDS011;30799;49.060;9.312;2023-05-19T09:48:29;7.75;;;2.70;;
45059;SDS011;30799;49.060;9.312;2023-05-19T09:50:56;4.60;;;2.30;;
45059;SDS011;30799;49.060;9.312;2023-05-19T09:53:23;7.28;;;3.20;;
45059;SDS011;30799;49.060;9.312;2023-05-19T09:56:00;5.95;;;3.13;;
45059;SDS011;30799;49.060;9.312;2023-05-19T09:58:32;5.18;;;2.70;;
45059;SDS011;30799;49.060;9.312;2023-05-19T10:01:03;5.63;;;2.72;;
45059;SDS011;30799;49.060;9.312;2023-05-19T10:03:31;7.72;;;3.20;;
45059;SDS011;30799;49.060;9.312;2023-05-19T10:06:02;6.65;;;3.40;;
45059;SDS011;30799;49.060;9.312;2023-05-19T10:08:30;8.35;;;3.70;;
45059;SDS011;30799;49.060;9.312;2023-05-19T10:10:59;7.60;;;3.38;;
45059;SDS011;30799;49.060;9.312;2023-05-19T10:13:28;7.15;;;3.25;;
45059;SDS011;30799;49.060;9.312;2023-05-19T10:15:56;7.03;;;3.03;;
45059;SDS011;30799;49.060;9.312;2023-05-19T10:18:25;8.25;;;3.20;;
45059;SDS011;30799;49.060;9.312;2023-05-19T10:20:55;6.43;;;3.03;;
45059;SDS011;30799;49.060;9.312;2023-05-19T10:23:24;6.22;;;3.20;;
45059;SDS011;30799;49.060;9.312;2023-05-19T10:25:52;6.97;;;2.85;;
45059;SDS011;30799;49.060;9.312;2023-05-19T10:28:22;6.95;;;2.88;;
45059;SDS011;30799;49.060;9.312;2023-05-19T10:30:53;7.05;;;2.85;;
45059;SDS011;30799;49.060;9.312;2023-05-19T10:33:27;4.35;;;2.63;;
45059;SDS011;30799;49.060;9.312;2023-05-19T10:38:47;5.25;;;2.63;;
45059;SDS011;30799;49.060;9.312;2023-05-19T10:47:33;3.67;;;2.50;;
45059;SDS011;30799;49.060;9.312;2023-05-19T10:50:00;6.22;;;2.47;;
45059;SDS011;30799;49.060;9.312;2023-05-19T10:52:27;6.40;;;2.90;;
45059;SDS011;30799;49.060;9.312;2023-05-19T10:54:56;4.63;;;2.78;;
45059;SDS011;30799;49.060;9.312;2023-05-19T10:57:26;5.45;;;2.90;;
45059;SDS011;30799;49.060;9.312;2023-05-19T10:59:54;4.38;;;2.75;;
45059;SDS011;30799;49.060;9.312;2023-05-19T11:02:41;5.10;;;2.38;;
45059;SDS011;30799;49.060;9.312;2023-05-19T11:05:10;8.05;;;2.65;;
45059;SDS011;30799;49.060;9.312;2023-05-19T11:07:40;7.75;;;2.55;;
45059;SDS011;30799;49.060;9.312;2023-05-19T11:10:08;4.60;;;2.72;;
45059;SDS011;30799;49.060;9.312;2023-05-19T11:12:43;5.93;;;3.00;;
45059;SDS011;30799;49.060;9.312;2023-05-19T11:15:11;4.65;;;2.60;;
45059;SDS011;30799;49.060;9.312;2023-05-19T11:17:39;6.35;;;2.63;;
45059;SDS011;30799;49.060;9.312;2023-05-19T11:20:19;6.78;;;2.95;;
45059;SDS011;30799;49.060;9.312;2023-05-19T11:23:07;5.18;;;2.85;;
45059;SDS011;30799;49.060;9.312;2023-05-19T11:25:45;5.85;;;2.67;;
45059;SDS011;30799;49.060;9.312;2023-05-19T11:28:17;5.32;;;2.53;;
45059;SDS011;30799;49.060;9.312;2023-05-19T11:30:46;5.18;;;2.85;;
45059;SDS011;30799;49.060;9.312;2023-05-19T11:33:18;6.60;;;2.90;;
45059;SDS011;30799;49.060;9.312;2023-05-19T11:35:46;9.15;;;3.17;;
45059;SDS011;30799;49.060;9.312;2023-05-19T11:38:15;8.93;;;3.17;;
45059;SDS011;30799;49.060;9.312;2023-05-19T11:40:43;11.55;;;3.42;;
45059;SDS011;30799;49.060;9.312;2023-05-19T11:43:10;9.55;;;3.17;;
45059;SDS011;30799;49.060;9.312;2023-05-19T11:45:37;11.90;;;3.17;;
45059;SDS011;30799;49.060;9.312;2023-05-19T11:48:04;11.52;;;3.25;;
45059;SDS011;30799;49.060;9.312;2023-05-19T11:50:32;7.05;;;3.10;;
45059;SDS011;30799;49.060;9.312;2023-05-19T11:53:00;7.80;;;2.92;;
45059;SDS011;30799;49.060;9.312;2023-05-19T11:55:28;9.57;;;3.20;;
45059;SDS011;30799;49.060;9.312;2023-05-19T12:00:33;7.72;;;3.03;;
45059;SDS011;30799;49.060;9.312;2023-05-19T12:03:05;4.95;;;2.58;;
45059;SDS011;30799;49.060;9.312;2023-05-19T12:05:35;6.55;;;2.67;;
45059;SDS011;30799;49.060;9.312;2023-05-19T12:08:08;7.40;;;2.88;;
45059;SDS011;30799;49.060;9.312;2023-05-19T12:10:36;5.63;;;2.47;;
45059;SDS011;30799;49.060;9.312;2023-05-19T12:13:04;6.93;;;2.90;;
45059;SDS011;30799;49.060;9.312;2023-05-19T12:15:33;5.30;;;3.00;;
45059;SDS011;30799;49.060;9.312;2023-05-19T12:18:01;7.78;;;2.97;;
45059;SDS011;30799;49.060;9.312;2023-05-19T12:20:29;4.90;;;2.47;;
45059;SDS011;30799;49.060;9.312;2023-05-19T12:23:01;4.93;;;2.97;;
45059;SDS011;30799;49.060;9.312;2023-05-19T12:25:28;5.80;;;2.50;;
45059;SDS011;30799;49.060;9.312;2023-05-19T12:27:57;7.35;;;2.95;;
45059;SDS011;30799;49.060;9.312;2023-05-19T12:30:26;5.00;;;2.60;;
45059;SDS011;30799;49.060;9.312;2023-05-19T12:32:56;6.88;;;3.35;;
45059;SDS011;30799;49.060;9.312;2023-05-19T12:35:30;8.15;;;2.78;;
45059;SDS011;30799;49.060;9.312;2023-05-19T12:38:05;9.52;;;2.60;;
45059;SDS011;30799;49.060;9.312;2023-05-19T12:40:32;4.78;;;2.53;;
45059;SDS011;30799;49.060;9.312;2023-05-19T12:43:01;5.82;;;2.72;;
45059;SDS011;30799;49.060;9.312;2023-05-19T12:45:32;4.13;;;2.65;;
45059;SDS011;30799;49.060;9.312;2023-05-19T12:48:01;6.05;;;2.53;;
45059;SDS011;30799;49.060;9.312;2023-05-19T12:50:29;5.78;;;2.92;;
45059;SDS011;30799;49.060;9.312;2023-05-19T12:52:58;7.47;;;2.85;;
45059;SDS011;30799;49.060;9.312;2023-05-19T12:55:25;9.82;;;2.80;;
45059;SDS011;30799;49.060;9.312;2023-05-19T12:57:52;4.90;;;2.33;;
45059;SDS011;30799;49.060;9.312;2023-05-19T13:00:22;5.25;;;2.75;;
45059;SDS011;30799;49.060;9.312;2023-05-19T13:03:07;3.78;;;2.22;;
45059;SDS011;30799;49.060;9.312;2023-05-19T13:05:42;6.32;;;2.83;;
45059;SDS011;30799;49.060;9.312;2023-05-19T13:08:13;4.88;;;2.58;;
45059;SDS011;30799;49.060;9.312;2023-05-19T13:10:44;4.40;;;2.58;;
45059;SDS011;30799;49.060;9.312;2023-05-19T13:13:12;7.90;;;2.58;;
45059;SDS011;30799;49.060;9.312;2023-05-19T13:15:42;7.10;;;2.80;;
45059;SDS011;30799;49.060;9.312;2023-05-19T13:18:10;3.42;;;2.20;;
45059;SDS011;30799;49.060;9.312;2023-05-19T13:20:39;5.32;;;2.30;;
45059;SDS011;30799;49.060;9.312;2023-05-19T13:23:08;8.00;;;2.70;;
45059;SDS011;30799;49.060;9.312;2023-05-19T13:25:36;6.03;;;2.65;;
45059;SDS011;30799;49.060;9.312;2023-05-19T13:28:03;5.20;;;2.50;;
45059;SDS011;30799;49.060;9.312;2023-05-19T13:30:31;3.67;;;2.20;;
45059;SDS011;30799;49.060;9.312;2023-05-19T13:33:00;5.85;;;2.80;;
45059;SDS011;30799;49.060;9.312;2023-05-19T13:35:27;4.88;;;2.40;;
45059;SDS011;30799;49.060;9.312;2023-05-19T13:37:54;4.93;;;2.35;;
45059;SDS011;30799;49.060;9.312;2023-05-19T13:40:20;5.78;;;2.42;;
45059;SDS011;30799;49.060;9.312;2023-05-19T13:42:49;7.15;;;2.40;;
45059;SDS011;30799;49.060;9.312;2023-05-19T13:45:15;3.55;;;2.47;;
45059;SDS011;30799;49.060;9.312;2023-05-19T13:47:43;3.90;;;2.60;;
45059;SDS011;30799;49.060;9.312;2023-05-19T13:50:10;4.63;;;2.40;;
45059;SDS011;30799;49.060;9.312;2023-05-19T13:52:37;4.60;;;2.65;;
45059;SDS011;30799;49.060;9.312;2023-05-19T13:55:05;3.95;;;2.20;;
45059;SDS011;30799;49.060;9.312;2023-05-19T13:57:32;4.65;;;2.53;;
45059;SDS011;30799;49.060;9.312;2023-05-19T13:59:59;5.45;;;2.88;;
45059;SDS011;30799;49.060;9.312;2023-05-19T14:02:29;3.53;;;2.63;;
45059;SDS011;30799;49.060;9.312;2023-05-19T14:04:56;3.28;;;2.00;;
45059;SDS011;30799;49.060;9.312;2023-05-19T14:07:23;5.72;;;2.58;;
45059;SDS011;30799;49.060;9.312;2023-05-19T14:09:50;3.95;;;2.13;;
45059;SDS011;30799;49.060;9.312;2023-05-19T14:12:17;3.63;;;2.13;;
45059;SDS011;30799;49.060;9.312;2023-05-19T14:14:48;3.85;;;2.25;;
45059;SDS011;30799;49.060;9.312;2023-05-19T14:17:15;5.32;;;2.60;;
45059;SDS011;30799;49.060;9.312;2023-05-19T14:19:42;4.10;;;2.03;;
45059;SDS011;30799;49.060;9.312;2023-05-19T14:22:08;3.03;;;2.00;;
45059;SDS011;30799;49.060;9.312;2023-05-19T14:24:35;5.63;;;2.20;;
45059;SDS011;30799;49.060;9.312;2023-05-19T14:27:02;4.57;;;2.90;;
45059;SDS011;30799;49.060;9.312;2023-05-19T14:29:29;4.70;;;2.45;;
45059;SDS011;30799;49.060;9.312;2023-05-19T14:31:59;3.30;;;2.38;;
45059;SDS011;30799;49.060;9.312;2023-05-19T14:34:26;3.50;;;2.30;;
45059;SDS011;30799;49.060;9.312;2023-05-19T14:36:52;4.30;;;2.28;;
45059;SDS011;30799;49.060;9.312;2023-05-19T14:39:19;7.13;;;2.35;;
45059;SDS011;30799;49.060;9.312;2023-05-19T14:41:46;3.35;;;2.13;;
45059;SDS011;30799;49.060;9.312;2023-05-19T14:44:14;4.20;;;2.40;;
45059;SDS011;30799;49.060;9.312;2023-05-19T14:46:41;3.78;;;2.40;;
45059;SDS011;30799;49.060;9.312;2023-05-19T14:49:07;3.28;;;2.08;;
45059;SDS011;30799;49.060;9.312;2023-05-19T14:51:34;5.10;;;2.10;;
45059;SDS011;30799;49.060;9.312;2023-05-19T14:54:01;2.97;;;2.22;;
45059;SDS011;30799;49.060;9.312;2023-05-19T14:56:28;5.00;;;2.45;;
45059;SDS011;30799;49.060;9.312;2023-05-19T14:58:55;5.43;;;2.45;;
45059;SDS011;30799;49.060;9.312;2023-05-19T15:01:21;3.60;;;2.00;;
45059;SDS011;30799;49.060;9.312;2023-05-19T15:03:48;3.35;;;2.38;;
45059;SDS011;30799;49.060;9.312;2023-05-19T15:06:15;3.88;;;2.30;;
45059;SDS011;30799;49.060;9.312;2023-05-19T15:08:43;4.43;;;3.08;;
45059;SDS011;30799;49.060;9.312;2023-05-19T15:11:10;4.35;;;2.58;;
45059;SDS011;30799;49.060;9.312;2023-05-19T15:13:37;2.90;;;2.30;;
45059;SDS011;30799;49.060;9.312;2023-05-19T15:16:04;3.28;;;2.53;;
45059;SDS011;30799;49.060;9.312;2023-05-19T15:18:43;3.92;;;2.10;;
45059;SDS011;30799;49.060;9.312;2023-05-19T15:21:10;3.97;;;2.20;;
45059;SDS011;30799;49.060;9.312;2023-05-19T15:23:37;4.22;;;2.38;;
45059;SDS011;30799;49.060;9.312;2023-05-19T15:26:04;4.22;;;2.47;;
45059;SDS011;30799;49.060;9.312;2023-05-19T15:28:31;2.80;;;2.30;;
45059;SDS011;30799;49.060;9.312;2023-05-19T15:30:58;4.10;;;2.40;;